sensor_id;sensor_type;location;lat;lon;timestamp;temperature;humidity
2459;DHT22;1241;50.920;6.936;2023-03-01T00:01:36;1.30;99.90
2459;DHT22;1241;50.920;6.936;2023-03-01T00:04:02;1.30;99.90
2459;DHT22;1241;50.920;6.936;2023-03-01T00:06:27;1.30;99.90
2459;DHT22;1241;50.920;6.936;2023-03-01T00:08:53;1.30;99.90
2459;DHT22;1241;50.920;6.936;2023-03-01T00:13:48;1.20;99.90
2459;DHT22;1241;50.920;6.936;2023-03-01T00:16:23;1.20;99.90
2459;DHT22;1241;50.920;6.936;2023-03-01T00:18:48;1.20;99.90
2459;DHT22;1241;50.920;6.936;2023-03-01T00:21:14;1.30;99.90
2459;DHT22;1241;50.920;6.936;2023-03-01T00:23:40;1.30;99.90
2459;DHT22;1241;50.920;6.936;2023-03-01T00:26:09;1.30;99.90
2459;DHT22;1241;50.920;6.936;2023-03-01T00:28:37;1.30;99.90
2459;DHT22;1241;50.920;6.936;2023-03-01T00:31:07;1.30;99.90
2459;DHT22;1241;50.920;6.936;2023-03-01T00:33:33;1.30;99.90
2459;DHT22;1241;50.920;6.936;2023-03-01T00:35:59;1.30;99.90
2459;DHT22;1241;50.920;6.936;2023-03-01T00:38:25;1.30;99.90
2459;DHT22;1241;50.920;6.936;2023-03-01T00:40:51;1.20;99.90
2459;DHT22;1241;50.920;6.936;2023-03-01T00:43:17;1.20;99.90
2459;DHT22;1241;50.920;6.936;2023-03-01T00:45:43;1.20;99.90
2459;DHT22;1241;50.920;6.936;2023-03-01T00:48:08;1.20;99.90
2459;DHT22;1241;50.920;6.936;2023-03-01T00:50:34;1.20;99.90
2459;DHT22;1241;50.920;6.936;2023-03-01T00:53:00;1.20;99.90
2459;DHT22;1241;50.920;6.936;2023-03-01T00:55:26;1.10;99.90
2459;DHT22;1241;50.920;6.936;2023-03-01T00:57:52;1.20;99.90
2459;DHT22;1241;50.920;6.936;2023-03-01T01:00:19;1.10;99.90
2459;DHT22;1241;50.920;6.936;2023-03-01T01:02:47;1.10;99.90
2459;DHT22;1241;50.920;6.936;2023-03-01T01:05:13;1.10;99.90
2459;DHT22;1241;50.920;6.936;2023-03-01T01:07:39;1.10;99.90
2459;DHT22;1241;50.920;6.936;2023-03-01T01:10:06;1.10;99.90
2459;DHT22;1241;50.920;6.936;2023-03-01T01:12:32;1.00;99.90
2459;DHT22;1241;50.920;6.936;2023-03-01T01:14:58;1.00;99.90
2459;DHT22;1241;50.920;6.936;2023-03-01T01:17:24;1.00;99.90
2459;DHT22;1241;50.920;6.936;2023-03-01T01:19:50;1.00;99.90
2459;DHT22;1241;50.920;6.936;2023-03-01T01:22:15;1.00;99.90
2459;DHT22;1241;50.920;6.936;2023-03-01T01:24:43;1.00;99.90
2459;DHT22;1241;50.920;6.936;2023-03-01T01:27:09;1.00;99.90
2459;DHT22;1241;50.920;6.936;2023-03-01T01:29:34;1.00;99.90
2459;DHT22;1241;50.920;6.936;2023-03-01T01:32:00;0.90;99.90
2459;DHT22;1241;50.920;6.936;2023-03-01T01:34:26;1.00;99.90
2459;DHT22;1241;50.920;6.936;2023-03-01T01:36:53;1.00;99.90
2459;DHT22;1241;50.920;6.936;2023-03-01T01:39:20;0.90;99.90
2459;DHT22;1241;50.920;6.936;2023-03-01T01:41:46;0.90;99.90
2459;DHT22;1241;50.920;6.936;2023-03-01T01:44:22;0.90;99.90
2459;DHT22;1241;50.920;6.936;2023-03-01T01:47:00;0.90;99.90
2459;DHT22;1241;50.920;6.936;2023-03-01T01:49:46;0.90;99.90
2459;DHT22;1241;50.920;6.936;2023-03-01T01:57:40;0.80;99.90
2459;DHT22;1241;50.920;6.936;2023-03-01T02:02:46;0.80;99.90
2459;DHT22;1241;50.920;6.936;2023-03-01T02:08:12;0.70;99.90
2459;DHT22;1241;50.920;6.936;2023-03-01T02:10:40;0.60;99.90
2459;DHT22;1241;50.920;6.936;2023-03-01T02:13:06;0.70;99.90
2459;DHT22;1241;50.920;6.936;2023-03-01T02:15:34;0.60;99.90
2459;DHT22;1241;50.920;6.936;2023-03-01T02:18:02;0.60;99.90
2459;DHT22;1241;50.920;6.936;2023-03-01T02:20:44;0.60;99.90
2459;DHT22;1241;50.920;6.936;2023-03-01T02:23:13;0.60;99.90
2459;DHT22;1241;50.920;6.936;2023-03-01T02:26:06;0.60;99.90
2459;DHT22;1241;50.920;6.936;2023-03-01T02:28:38;0.50;99.90
2459;DHT22;1241;50.920;6.936;2023-03-01T02:31:09;0.50;99.90
2459;DHT22;1241;50.920;6.936;2023-03-01T02:33:54;0.50;99.90
2459;DHT22;1241;50.920;6.936;2023-03-01T02:36:25;0.50;99.90
2459;DHT22;1241;50.920;6.936;2023-03-01T02:38:54;0.40;99.90
2459;DHT22;1241;50.920;6.936;2023-03-01T02:41:22;0.40;99.90
2459;DHT22;1241;50.920;6.936;2023-03-01T02:43:49;0.40;99.90
2459;DHT22;1241;50.920;6.936;2023-03-01T02:46:21;0.30;99.90
2459;DHT22;1241;50.920;6.936;2023-03-01T02:48:56;0.30;99.90
2459;DHT22;1241;50.920;6.936;2023-03-01T02:51:27;0.30;99.90
2459;DHT22;1241;50.920;6.936;2023-03-01T02:56:46;0.30;99.90
2459;DHT22;1241;50.920;6.936;2023-03-01T02:59:20;0.30;99.90
2459;DHT22;1241;50.920;6.936;2023-03-01T03:01:47;0.30;99.90
2459;DHT22;1241;50.920;6.936;2023-03-01T03:04:17;0.20;99.90
2459;DHT22;1241;50.920;6.936;2023-03-01T03:06:46;0.20;99.90
2459;DHT22;1241;50.920;6.936;2023-03-01T03:09:13;0.30;99.90
2459;DHT22;1241;50.920;6.936;2023-03-01T03:11:39;0.30;99.90
2459;DHT22;1241;50.920;6.936;2023-03-01T03:14:11;0.30;99.90
2459;DHT22;1241;50.920;6.936;2023-03-01T03:16:44;0.30;99.90
2459;DHT22;1241;50.920;6.936;2023-03-01T03:19:10;0.30;99.90
2459;DHT22;1241;50.920;6.936;2023-03-01T03:21:36;0.20;99.90
2459;DHT22;1241;50.920;6.936;2023-03-01T03:24:02;0.30;99.90
2459;DHT22;1241;50.920;6.936;2023-03-01T03:26:28;0.20;99.90
2459;DHT22;1241;50.920;6.936;2023-03-01T03:28:53;0.20;99.90
2459;DHT22;1241;50.920;6.936;2023-03-01T03:31:19;0.20;99.90
2459;DHT22;1241;50.920;6.936;2023-03-01T03:33:45;0.20;99.90
2459;DHT22;1241;50.920;6.936;2023-03-01T03:36:19;0.20;99.90
2459;DHT22;1241;50.920;6.936;2023-03-01T03:38:45;0.20;99.90
2459;DHT22;1241;50.920;6.936;2023-03-01T03:41:11;0.20;99.90
2459;DHT22;1241;50.920;6.936;2023-03-01T03:43:39;0.20;99.90
2459;DHT22;1241;50.920;6.936;2023-03-01T03:46:06;0.20;99.90
2459;DHT22;1241;50.920;6.936;2023-03-01T03:48:37;0.20;99.90
2459;DHT22;1241;50.920;6.936;2023-03-01T03:51:03;0.10;99.90
2459;DHT22;1241;50.920;6.936;2023-03-01T03:53:31;0.10;99.90
2459;DHT22;1241;50.920;6.936;2023-03-01T03:55:58;0.10;99.90
2459;DHT22;1241;50.920;6.936;2023-03-01T03:58:25;0.10;99.90
2459;DHT22;1241;50.920;6.936;2023-03-01T04:00:56;0.10;99.90
2459;DHT22;1241;50.920;6.936;2023-03-01T04:03:23;0.10;99.90
2459;DHT22;1241;50.920;6.936;2023-03-01T04:05:50;0.10;99.90
2459;DHT22;1241;50.920;6.936;2023-03-01T04:08:17;0.10;99.90
2459;DHT22;1241;50.920;6.936;2023-03-01T04:10:47;0.00;99.90
2459;DHT22;1241;50.920;6.936;2023-03-01T04:13:21;0.10;99.90
2459;DHT22;1241;50.920;6.936;2023-03-01T04:15:51;0.10;99.90
2459;DHT22;1241;50.920;6.936;2023-03-01T04:18:19;0.00;99.90
2459;DHT22;1241;50.920;6.936;2023-03-01T04:20:45;0.00;99.90
2459;DHT22;1241;50.920;6.936;2023-03-01T04:23:13;0.00;99.90
2459;DHT22;1241;50.920;6.936;2023-03-01T04:25:55;-0.10;99.90
2459;DHT22;1241;50.920;6.936;2023-03-01T04:28:27;-0.10;99.90
2459;DHT22;1241;50.920;6.936;2023-03-01T04:30:54;-0.20;99.90
2459;DHT22;1241;50.920;6.936;2023-03-01T04:33:21;-0.20;99.90
2459;DHT22;1241;50.920;6.936;2023-03-01T04:35:47;-0.20;99.90
2459;DHT22;1241;50.920;6.936;2023-03-01T04:38:15;-0.20;99.90
2459;DHT22;1241;50.920;6.936;2023-03-01T04:40:41;-0.20;99.90
2459;DHT22;1241;50.920;6.936;2023-03-01T04:43:09;-0.20;99.90
2459;DHT22;1241;50.920;6.936;2023-03-01T04:45:36;-0.20;99.90
2459;DHT22;1241;50.920;6.936;2023-03-01T04:48:03;-0.30;99.90
2459;DHT22;1241;50.920;6.936;2023-03-01T04:50:29;-0.30;99.90
2459;DHT22;1241;50.920;6.936;2023-03-01T04:52:55;-0.30;99.90
2459;DHT22;1241;50.920;6.936;2023-03-01T04:55:25;-0.40;99.90
2459;DHT22;1241;50.920;6.936;2023-03-01T04:57:51;-0.40;99.90
2459;DHT22;1241;50.920;6.936;2023-03-01T05:00:18;-0.40;99.90
2459;DHT22;1241;50.920;6.936;2023-03-01T05:05:14;-0.40;99.90
2459;DHT22;1241;50.920;6.936;2023-03-01T05:07:40;-0.40;99.90
2459;DHT22;1241;50.920;6.936;2023-03-01T05:10:06;-0.30;99.90
2459;DHT22;1241;50.920;6.936;2023-03-01T05:12:31;-0.30;99.90
2459;DHT22;1241;50.920;6.936;2023-03-01T05:14:57;-0.30;99.90
2459;DHT22;1241;50.920;6.936;2023-03-01T05:17:23;-0.30;99.90
2459;DHT22;1241;50.920;6.936;2023-03-01T05:19:49;-0.30;99.90
2459;DHT22;1241;50.920;6.936;2023-03-01T05:22:15;-0.30;99.90
2459;DHT22;1241;50.920;6.936;2023-03-01T05:24:41;-0.30;99.90
2459;DHT22;1241;50.920;6.936;2023-03-01T05:27:07;-0.20;99.90
2459;DHT22;1241;50.920;6.936;2023-03-01T05:29:33;-0.30;99.90
2459;DHT22;1241;50.920;6.936;2023-03-01T05:32:01;-0.30;99.90
2459;DHT22;1241;50.920;6.936;2023-03-01T05:34:30;-0.30;99.90
2459;DHT22;1241;50.920;6.936;2023-03-01T05:36:56;-0.40;99.90
2459;DHT22;1241;50.920;6.936;2023-03-01T05:39:26;-0.40;99.90
2459;DHT22;1241;50.920;6.936;2023-03-01T05:41:57;-0.40;99.90
2459;DHT22;1241;50.920;6.936;2023-03-01T05:44:25;-0.40;99.90
2459;DHT22;1241;50.920;6.936;2023-03-01T05:46:51;-0.40;99.90
2459;DHT22;1241;50.920;6.936;2023-03-01T05:49:18;-0.30;99.90
2459;DHT22;1241;50.920;6.936;2023-03-01T05:51:50;-0.40;99.90
2459;DHT22;1241;50.920;6.936;2023-03-01T05:54:16;-0.40;99.90
2459;DHT22;1241;50.920;6.936;2023-03-01T05:56:41;-0.40;99.90
2459;DHT22;1241;50.920;6.936;2023-03-01T05:59:07;-0.40;99.90
2459;DHT22;1241;50.920;6.936;2023-03-01T06:01:34;-0.40;99.90
2459;DHT22;1241;50.920;6.936;2023-03-01T06:04:00;-0.40;99.90
2459;DHT22;1241;50.920;6.936;2023-03-01T06:06:27;-0.40;99.90
2459;DHT22;1241;50.920;6.936;2023-03-01T06:08:53;-0.40;99.90
2459;DHT22;1241;50.920;6.936;2023-03-01T06:11:19;-0.50;99.90
2459;DHT22;1241;50.920;6.936;2023-03-01T06:13:45;-0.50;99.90
2459;DHT22;1241;50.920;6.936;2023-03-01T06:16:12;-0.50;99.90
2459;DHT22;1241;50.920;6.936;2023-03-01T06:18:38;-0.40;99.90
2459;DHT22;1241;50.920;6.936;2023-03-01T06:21:05;-0.40;99.90
2459;DHT22;1241;50.920;6.936;2023-03-01T06:23:31;-0.40;99.90
2459;DHT22;1241;50.920;6.936;2023-03-01T06:25:57;-0.40;99.90
2459;DHT22;1241;50.920;6.936;2023-03-01T06:28:22;-0.40;99.90
2459;DHT22;1241;50.920;6.936;2023-03-01T06:30:49;-0.40;99.90
2459;DHT22;1241;50.920;6.936;2023-03-01T06:33:15;-0.40;99.90
2459;DHT22;1241;50.920;6.936;2023-03-01T06:35:41;-0.40;99.90
2459;DHT22;1241;50.920;6.936;2023-03-01T06:38:06;-0.40;99.90
2459;DHT22;1241;50.920;6.936;2023-03-01T06:40:32;-0.40;99.90
2459;DHT22;1241;50.920;6.936;2023-03-01T06:43:01;-0.40;99.90
2459;DHT22;1241;50.920;6.936;2023-03-01T06:45:26;-0.40;99.90
2459;DHT22;1241;50.920;6.936;2023-03-01T06:47:52;-0.30;99.90
2459;DHT22;1241;50.920;6.936;2023-03-01T06:50:18;-0.30;99.90
2459;DHT22;1241;50.920;6.936;2023-03-01T06:52:44;-0.30;99.90
2459;DHT22;1241;50.920;6.936;2023-03-01T06:55:12;-0.30;99.90
2459;DHT22;1241;50.920;6.936;2023-03-01T06:57:38;-0.20;99.90
2459;DHT22;1241;50.920;6.936;2023-03-01T07:00:04;-0.10;99.90
2459;DHT22;1241;50.920;6.936;2023-03-01T07:02:31;-0.10;99.90
2459;DHT22;1241;50.920;6.936;2023-03-01T07:04:57;-0.10;99.90
2459;DHT22;1241;50.920;6.936;2023-03-01T07:07:22;-0.10;99.90
2459;DHT22;1241;50.920;6.936;2023-03-01T07:09:49;0.00;99.90
2459;DHT22;1241;50.920;6.936;2023-03-01T07:12:15;0.10;99.90
2459;DHT22;1241;50.920;6.936;2023-03-01T07:14:41;0.20;99.90
2459;DHT22;1241;50.920;6.936;2023-03-01T07:17:07;0.30;99.90
2459;DHT22;1241;50.920;6.936;2023-03-01T07:19:33;0.40;99.90
2459;DHT22;1241;50.920;6.936;2023-03-01T07:21:58;0.50;99.90
2459;DHT22;1241;50.920;6.936;2023-03-01T07:24:24;0.50;99.90
2459;DHT22;1241;50.920;6.936;2023-03-01T07:26:51;0.70;99.90
2459;DHT22;1241;50.920;6.936;2023-03-01T07:29:17;0.60;99.90
2459;DHT22;1241;50.920;6.936;2023-03-01T07:31:43;0.70;99.90
2459;DHT22;1241;50.920;6.936;2023-03-01T07:34:09;0.70;99.90
2459;DHT22;1241;50.920;6.936;2023-03-01T07:36:36;0.60;99.90
2459;DHT22;1241;50.920;6.936;2023-03-01T07:39:02;0.70;99.90
2459;DHT22;1241;50.920;6.936;2023-03-01T07:41:29;0.70;99.90
2459;DHT22;1241;50.920;6.936;2023-03-01T07:43:55;0.70;99.90
2459;DHT22;1241;50.920;6.936;2023-03-01T07:46:20;0.70;99.90
2459;DHT22;1241;50.920;6.936;2023-03-01T07:48:46;0.60;99.90
2459;DHT22;1241;50.920;6.936;2023-03-01T07:51:12;0.60;99.90
2459;DHT22;1241;50.920;6.936;2023-03-01T07:53:38;0.60;99.90
2459;DHT22;1241;50.920;6.936;2023-03-01T07:56:08;0.60;99.90
2459;DHT22;1241;50.920;6.936;2023-03-01T07:58:35;0.70;99.90
2459;DHT22;1241;50.920;6.936;2023-03-01T08:01:06;0.70;99.90
2459;DHT22;1241;50.920;6.936;2023-03-01T08:03:32;0.80;99.90
2459;DHT22;1241;50.920;6.936;2023-03-01T08:06:06;1.00;99.90
2459;DHT22;1241;50.920;6.936;2023-03-01T08:08:33;1.00;99.90
2459;DHT22;1241;50.920;6.936;2023-03-01T08:11:00;1.00;99.90
2459;DHT22;1241;50.920;6.936;2023-03-01T08:13:27;1.00;99.90
2459;DHT22;1241;50.920;6.936;2023-03-01T08:15:53;1.00;99.90
2459;DHT22;1241;50.920;6.936;2023-03-01T08:18:20;1.10;99.90
2459;DHT22;1241;50.920;6.936;2023-03-01T08:20:46;1.10;99.90
2459;DHT22;1241;50.920;6.936;2023-03-01T08:23:12;1.20;99.90
2459;DHT22;1241;50.920;6.936;2023-03-01T08:25:38;1.20;99.90
2459;DHT22;1241;50.920;6.936;2023-03-01T08:28:04;1.30;99.90
2459;DHT22;1241;50.920;6.936;2023-03-01T08:30:30;1.40;99.90
2459;DHT22;1241;50.920;6.936;2023-03-01T08:32:56;1.40;99.90
2459;DHT22;1241;50.920;6.936;2023-03-01T08:35:22;1.50;99.90
2459;DHT22;1241;50.920;6.936;2023-03-01T08:37:48;1.60;99.90
2459;DHT22;1241;50.920;6.936;2023-03-01T08:40:14;1.70;99.90
2459;DHT22;1241;50.920;6.936;2023-03-01T08:42:40;1.80;99.90
2459;DHT22;1241;50.920;6.936;2023-03-01T08:45:09;1.90;99.90
2459;DHT22;1241;50.920;6.936;2023-03-01T08:47:35;2.00;99.90
2459;DHT22;1241;50.920;6.936;2023-03-01T08:50:01;2.10;99.90
2459;DHT22;1241;50.920;6.936;2023-03-01T08:52:27;2.20;99.90
2459;DHT22;1241;50.920;6.936;2023-03-01T08:54:53;2.10;99.90
2459;DHT22;1241;50.920;6.936;2023-03-01T08:57:19;2.20;99.90
2459;DHT22;1241;50.920;6.936;2023-03-01T08:59:44;2.30;99.90
2459;DHT22;1241;50.920;6.936;2023-03-01T09:02:13;2.40;99.90
2459;DHT22;1241;50.920;6.936;2023-03-01T09:04:39;2.50;99.90
2459;DHT22;1241;50.920;6.936;2023-03-01T09:07:05;2.50;99.90
2459;DHT22;1241;50.920;6.936;2023-03-01T09:09:31;2.60;99.90
2459;DHT22;1241;50.920;6.936;2023-03-01T09:11:57;2.60;99.90
2459;DHT22;1241;50.920;6.936;2023-03-01T09:14:23;2.60;99.90
2459;DHT22;1241;50.920;6.936;2023-03-01T09:16:48;2.60;99.90
2459;DHT22;1241;50.920;6.936;2023-03-01T09:19:14;2.70;99.90
2459;DHT22;1241;50.920;6.936;2023-03-01T09:21:40;2.80;99.90
2459;DHT22;1241;50.920;6.936;2023-03-01T09:24:12;2.90;99.90
2459;DHT22;1241;50.920;6.936;2023-03-01T09:26:38;2.90;99.90
2459;DHT22;1241;50.920;6.936;2023-03-01T09:29:04;2.90;99.90
2459;DHT22;1241;50.920;6.936;2023-03-01T09:31:30;3.00;99.90
2459;DHT22;1241;50.920;6.936;2023-03-01T09:33:55;3.10;99.90
2459;DHT22;1241;50.920;6.936;2023-03-01T09:36:23;3.20;99.90
2459;DHT22;1241;50.920;6.936;2023-03-01T09:38:50;3.10;99.90
2459;DHT22;1241;50.920;6.936;2023-03-01T09:43:59;3.30;99.90
2459;DHT22;1241;50.920;6.936;2023-03-01T09:46:33;3.40;99.90
2459;DHT22;1241;50.920;6.936;2023-03-01T09:49:05;3.40;99.90
2459;DHT22;1241;50.920;6.936;2023-03-01T09:51:36;3.40;99.90
2459;DHT22;1241;50.920;6.936;2023-03-01T09:54:04;3.40;99.90
2459;DHT22;1241;50.920;6.936;2023-03-01T10:09:33;3.60;99.90
2459;DHT22;1241;50.920;6.936;2023-03-01T10:12:00;3.70;99.90
2459;DHT22;1241;50.920;6.936;2023-03-01T10:17:03;3.80;99.90
2459;DHT22;1241;50.920;6.936;2023-03-01T10:19:38;3.90;99.90
2459;DHT22;1241;50.920;6.936;2023-03-01T10:22:15;4.00;99.90
2459;DHT22;1241;50.920;6.936;2023-03-01T10:24:41;4.10;99.90
2459;DHT22;1241;50.920;6.936;2023-03-01T10:27:25;4.10;99.90
2459;DHT22;1241;50.920;6.936;2023-03-01T10:30:00;4.10;99.90
2459;DHT22;1241;50.920;6.936;2023-03-01T10:32:31;4.10;99.90
2459;DHT22;1241;50.920;6.936;2023-03-01T10:34:56;4.20;99.90
2459;DHT22;1241;50.920;6.936;2023-03-01T10:37:23;4.20;99.90
2459;DHT22;1241;50.920;6.936;2023-03-01T10:42:29;4.30;99.90
2459;DHT22;1241;50.920;6.936;2023-03-01T10:44:56;4.30;99.90
2459;DHT22;1241;50.920;6.936;2023-03-01T10:47:27;4.30;99.90
2459;DHT22;1241;50.920;6.936;2023-03-01T10:49:59;4.40;99.90
2459;DHT22;1241;50.920;6.936;2023-03-01T10:52:34;4.50;99.90
2459;DHT22;1241;50.920;6.936;2023-03-01T10:55:29;4.60;99.90
2459;DHT22;1241;50.920;6.936;2023-03-01T10:58:21;4.80;99.90
2459;DHT22;1241;50.920;6.936;2023-03-01T11:01:02;4.80;99.90
2459;DHT22;1241;50.920;6.936;2023-03-01T11:03:31;4.80;99.90
2459;DHT22;1241;50.920;6.936;2023-03-01T11:06:02;4.80;99.90
2459;DHT22;1241;50.920;6.936;2023-03-01T11:14:01;5.00;99.90
2459;DHT22;1241;50.920;6.936;2023-03-01T11:16:37;5.10;99.90
2459;DHT22;1241;50.920;6.936;2023-03-01T11:22:08;5.30;99.90
2459;DHT22;1241;50.920;6.936;2023-03-01T11:27:18;5.60;99.90
2459;DHT22;1241;50.920;6.936;2023-03-01T11:30:12;5.70;99.90
2459;DHT22;1241;50.920;6.936;2023-03-01T11:32:42;5.80;99.90
2459;DHT22;1241;50.920;6.936;2023-03-01T11:35:21;5.90;99.90
2459;DHT22;1241;50.920;6.936;2023-03-01T11:40:45;5.80;99.90
2459;DHT22;1241;50.920;6.936;2023-03-01T11:59:58;5.90;99.90
2459;DHT22;1241;50.920;6.936;2023-03-01T12:19:07;6.10;99.90
2459;DHT22;1241;50.920;6.936;2023-03-01T12:21:55;6.20;99.90
2459;DHT22;1241;50.920;6.936;2023-03-01T12:27:59;6.40;99.90
2459;DHT22;1241;50.920;6.936;2023-03-01T12:38:49;6.60;99.90
2459;DHT22;1241;50.920;6.936;2023-03-01T12:41:33;6.60;99.90
2459;DHT22;1241;50.920;6.936;2023-03-01T12:47:22;6.60;99.90
2459;DHT22;1241;50.920;6.936;2023-03-01T12:49:54;6.60;99.90
2459;DHT22;1241;50.920;6.936;2023-03-01T12:55:02;6.80;99.90
2459;DHT22;1241;50.920;6.936;2023-03-01T12:57:40;6.90;99.90
2459;DHT22;1241;50.920;6.936;2023-03-01T13:00:28;7.00;99.90
2459;DHT22;1241;50.920;6.936;2023-03-01T13:03:20;7.00;99.90
2459;DHT22;1241;50.920;6.936;2023-03-01T13:08:23;7.30;99.90
2459;DHT22;1241;50.920;6.936;2023-03-01T13:11:00;7.50;99.90
2459;DHT22;1241;50.920;6.936;2023-03-01T13:13:27;7.50;99.90
2459;DHT22;1241;50.920;6.936;2023-03-01T13:15:54;7.40;99.90
2459;DHT22;1241;50.920;6.936;2023-03-01T13:20:52;7.60;99.90
2459;DHT22;1241;50.920;6.936;2023-03-01T13:26:06;7.60;99.70
2459;DHT22;1241;50.920;6.936;2023-03-01T13:28:42;7.70;99.90
2459;DHT22;1241;50.920;6.936;2023-03-01T13:34:39;7.90;99.50
2459;DHT22;1241;50.920;6.936;2023-03-01T13:37:10;7.80;97.70
2459;DHT22;1241;50.920;6.936;2023-03-01T13:39:43;7.80;98.80
2459;DHT22;1241;50.920;6.936;2023-03-01T13:42:32;7.80;97.30
2459;DHT22;1241;50.920;6.936;2023-03-01T13:44:58;7.80;96.10
2459;DHT22;1241;50.920;6.936;2023-03-01T13:47:24;7.80;96.70
2459;DHT22;1241;50.920;6.936;2023-03-01T13:49:56;7.90;96.70
2459;DHT22;1241;50.920;6.936;2023-03-01T13:57:43;7.90;96.60
2459;DHT22;1241;50.920;6.936;2023-03-01T14:00:36;7.90;95.10
2459;DHT22;1241;50.920;6.936;2023-03-01T14:03:14;8.00;94.40
2459;DHT22;1241;50.920;6.936;2023-03-01T14:05:43;8.00;94.30
2459;DHT22;1241;50.920;6.936;2023-03-01T14:08:24;8.00;93.60
2459;DHT22;1241;50.920;6.936;2023-03-01T14:16:19;8.10;93.10
2459;DHT22;1241;50.920;6.936;2023-03-01T14:19:17;8.10;93.00
2459;DHT22;1241;50.920;6.936;2023-03-01T14:21:46;8.10;93.00
2459;DHT22;1241;50.920;6.936;2023-03-01T14:24:21;8.10;92.90
2459;DHT22;1241;50.920;6.936;2023-03-01T14:26:49;8.20;94.00
2459;DHT22;1241;50.920;6.936;2023-03-01T14:29:45;8.30;92.20
2459;DHT22;1241;50.920;6.936;2023-03-01T14:32:22;8.30;91.50
2459;DHT22;1241;50.920;6.936;2023-03-01T14:34:50;8.30;91.00
2459;DHT22;1241;50.920;6.936;2023-03-01T14:37:28;8.30;90.50
2459;DHT22;1241;50.920;6.936;2023-03-01T14:39:55;8.40;90.20
2459;DHT22;1241;50.920;6.936;2023-03-01T14:42:22;8.30;89.40
2459;DHT22;1241;50.920;6.936;2023-03-01T14:44:51;8.30;90.00
2459;DHT22;1241;50.920;6.936;2023-03-01T14:50:01;8.40;90.40
2459;DHT22;1241;50.920;6.936;2023-03-01T14:52:41;8.40;92.20
2459;DHT22;1241;50.920;6.936;2023-03-01T14:55:16;8.40;92.80
2459;DHT22;1241;50.920;6.936;2023-03-01T14:57:45;8.30;94.00
2459;DHT22;1241;50.920;6.936;2023-03-01T15:00:21;8.20;95.30
2459;DHT22;1241;50.920;6.936;2023-03-01T15:02:49;8.10;97.30
2459;DHT22;1241;50.920;6.936;2023-03-01T15:05:26;7.90;98.40
2459;DHT22;1241;50.920;6.936;2023-03-01T15:07:53;7.90;99.90
2459;DHT22;1241;50.920;6.936;2023-03-01T15:10:27;7.80;99.90
2459;DHT22;1241;50.920;6.936;2023-03-01T15:12:53;7.80;99.90
2459;DHT22;1241;50.920;6.936;2023-03-01T15:15:37;7.80;99.90
2459;DHT22;1241;50.920;6.936;2023-03-01T15:18:28;7.80;99.90
2459;DHT22;1241;50.920;6.936;2023-03-01T15:20:53;7.80;99.90
2459;DHT22;1241;50.920;6.936;2023-03-01T15:23:25;7.80;99.90
2459;DHT22;1241;50.920;6.936;2023-03-01T15:25:53;7.70;99.90
2459;DHT22;1241;50.920;6.936;2023-03-01T15:28:27;7.70;99.90
2459;DHT22;1241;50.920;6.936;2023-03-01T15:31:19;7.60;99.90
2459;DHT22;1241;50.920;6.936;2023-03-01T15:33:46;7.70;99.90
2459;DHT22;1241;50.920;6.936;2023-03-01T15:36:35;7.60;99.90
2459;DHT22;1241;50.920;6.936;2023-03-01T15:39:02;7.60;99.90
2459;DHT22;1241;50.920;6.936;2023-03-01T15:41:47;7.60;99.90
2459;DHT22;1241;50.920;6.936;2023-03-01T15:44:25;7.60;99.90
2459;DHT22;1241;50.920;6.936;2023-03-01T15:46:51;7.60;99.90
2459;DHT22;1241;50.920;6.936;2023-03-01T15:49:39;7.50;99.90
2459;DHT22;1241;50.920;6.936;2023-03-01T15:52:29;7.40;99.90
2459;DHT22;1241;50.920;6.936;2023-03-01T15:54:59;7.40;99.90
2459;DHT22;1241;50.920;6.936;2023-03-01T15:57:25;7.40;99.90
2459;DHT22;1241;50.920;6.936;2023-03-01T15:59:51;7.40;99.90
2459;DHT22;1241;50.920;6.936;2023-03-01T16:02:17;7.40;99.90
2459;DHT22;1241;50.920;6.936;2023-03-01T16:04:42;7.40;99.90
2459;DHT22;1241;50.920;6.936;2023-03-01T16:07:09;7.30;99.90
2459;DHT22;1241;50.920;6.936;2023-03-01T16:09:35;7.30;99.90
2459;DHT22;1241;50.920;6.936;2023-03-01T16:12:01;7.30;99.90
2459;DHT22;1241;50.920;6.936;2023-03-01T16:14:27;7.20;99.90
2459;DHT22;1241;50.920;6.936;2023-03-01T16:16:53;7.20;99.90
2459;DHT22;1241;50.920;6.936;2023-03-01T16:19:19;7.20;99.90
2459;DHT22;1241;50.920;6.936;2023-03-01T16:21:45;7.20;99.90
2459;DHT22;1241;50.920;6.936;2023-03-01T16:24:12;7.10;99.90
2459;DHT22;1241;50.920;6.936;2023-03-01T16:26:38;7.10;99.90
2459;DHT22;1241;50.920;6.936;2023-03-01T16:29:05;7.10;99.90
2459;DHT22;1241;50.920;6.936;2023-03-01T16:31:31;7.00;99.90
2459;DHT22;1241;50.920;6.936;2023-03-01T16:33:58;7.00;99.90
2459;DHT22;1241;50.920;6.936;2023-03-01T16:36:26;7.00;99.90
2459;DHT22;1241;50.920;6.936;2023-03-01T16:38:54;7.00;99.90
2459;DHT22;1241;50.920;6.936;2023-03-01T16:41:23;6.90;99.90
2459;DHT22;1241;50.920;6.936;2023-03-01T16:43:49;6.90;99.90
2459;DHT22;1241;50.920;6.936;2023-03-01T16:46:18;6.90;99.90
2459;DHT22;1241;50.920;6.936;2023-03-01T16:48:45;6.80;99.90
2459;DHT22;1241;50.920;6.936;2023-03-01T16:51:11;6.80;99.90
2459;DHT22;1241;50.920;6.936;2023-03-01T16:53:37;6.80;99.90
2459;DHT22;1241;50.920;6.936;2023-03-01T16:56:05;6.70;99.90
2459;DHT22;1241;50.920;6.936;2023-03-01T16:58:31;6.60;99.90
2459;DHT22;1241;50.920;6.936;2023-03-01T17:01:04;6.60;99.90
2459;DHT22;1241;50.920;6.936;2023-03-01T17:03:31;6.60;99.90
2459;DHT22;1241;50.920;6.936;2023-03-01T17:05:56;6.50;99.90
2459;DHT22;1241;50.920;6.936;2023-03-01T17:08:22;6.50;99.90
2459;DHT22;1241;50.920;6.936;2023-03-01T17:10:48;6.40;99.90
2459;DHT22;1241;50.920;6.936;2023-03-01T17:13:14;6.40;99.90
2459;DHT22;1241;50.920;6.936;2023-03-01T17:15:40;6.30;99.90
2459;DHT22;1241;50.920;6.936;2023-03-01T17:18:08;6.30;99.90
2459;DHT22;1241;50.920;6.936;2023-03-01T17:20:34;6.30;99.90
2459;DHT22;1241;50.920;6.936;2023-03-01T17:23:01;6.20;99.90
2459;DHT22;1241;50.920;6.936;2023-03-01T17:25:27;6.20;99.90
2459;DHT22;1241;50.920;6.936;2023-03-01T17:27:52;6.10;99.90
2459;DHT22;1241;50.920;6.936;2023-03-01T17:30:18;6.10;99.90
2459;DHT22;1241;50.920;6.936;2023-03-01T17:32:44;6.10;99.90
2459;DHT22;1241;50.920;6.936;2023-03-01T17:35:10;6.00;99.90
2459;DHT22;1241;50.920;6.936;2023-03-01T17:37:37;6.00;99.90
2459;DHT22;1241;50.920;6.936;2023-03-01T17:40:05;6.00;99.90
2459;DHT22;1241;50.920;6.936;2023-03-01T17:42:32;5.90;99.90
2459;DHT22;1241;50.920;6.936;2023-03-01T17:44:57;5.90;99.90
2459;DHT22;1241;50.920;6.936;2023-03-01T17:47:23;5.80;99.90
2459;DHT22;1241;50.920;6.936;2023-03-01T17:49:49;5.80;99.90
2459;DHT22;1241;50.920;6.936;2023-03-01T17:52:15;5.70;99.90
2459;DHT22;1241;50.920;6.936;2023-03-01T17:54:41;5.70;99.90
2459;DHT22;1241;50.920;6.936;2023-03-01T17:57:06;5.70;99.90
2459;DHT22;1241;50.920;6.936;2023-03-01T17:59:35;5.60;99.90
2459;DHT22;1241;50.920;6.936;2023-03-01T18:02:01;5.60;99.90
2459;DHT22;1241;50.920;6.936;2023-03-01T18:04:27;5.60;99.90
2459;DHT22;1241;50.920;6.936;2023-03-01T18:06:53;5.60;99.90
2459;DHT22;1241;50.920;6.936;2023-03-01T18:09:20;5.50;99.90
2459;DHT22;1241;50.920;6.936;2023-03-01T18:11:46;5.50;99.90
2459;DHT22;1241;50.920;6.936;2023-03-01T18:14:12;5.40;99.90
2459;DHT22;1241;50.920;6.936;2023-03-01T18:16:38;5.20;99.90
2459;DHT22;1241;50.920;6.936;2023-03-01T18:19:04;5.40;99.90
2459;DHT22;1241;50.920;6.936;2023-03-01T18:21:30;5.40;99.90
2459;DHT22;1241;50.920;6.936;2023-03-01T18:23:56;5.30;99.90
2459;DHT22;1241;50.920;6.936;2023-03-01T18:26:24;5.30;99.90
2459;DHT22;1241;50.920;6.936;2023-03-01T18:28:52;5.20;99.90
2459;DHT22;1241;50.920;6.936;2023-03-01T18:31:20;5.20;99.90
2459;DHT22;1241;50.920;6.936;2023-03-01T18:33:47;5.20;99.90
2459;DHT22;1241;50.920;6.936;2023-03-01T18:36:23;5.10;99.90